Welcome to the New NWS' Forecast!
Most changes are behind the scenes, but click here for differences you might notice.

Terminal Aerodrome Forecast (TAF)

Issued by National Weather Service (NWS)

                            
000
FTUS42 KKEY 180559
TAFEYW
TAF
KEYW 180559Z 1806/1906 09006G15KT P6SM VCSH SCT025
     FM181600 12008G18KT P6SM VCTS SCT025CB BKN050
     FM190200 09008KT P6SM SCT025=